sensor_id;sensor_type;location;lat;lon;timestamp;P1;durP1;ratioP1;P2;durP2;ratioP2
6561;SDS011;3314;50.890;4.722;2023-08-08T00:01:11;8.9;;;1.6;;
6561;SDS011;3314;50.890;4.722;2023-08-08T00:03:11;10.5;;;2.1;;
6561;SDS011;3314;50.890;4.722;2023-08-08T00:05:10;6.7;;;1.2;;
6561;SDS011;3314;50.890;4.722;2023-08-08T00:07:10;10.7;;;1.7;;
6561;SDS011;3314;50.890;4.722;2023-08-08T00:09:10;6.9;;;1.4;;
6561;SDS011;3314;50.890;4.722;2023-08-08T00:11:09;7.5;;;1.5;;
6561;SDS011;3314;50.890;4.722;2023-08-08T00:13:09;8.0;;;1.3;;
6561;SDS011;3314;50.890;4.722;2023-08-08T00:15:09;10.3;;;2.0;;
6561;SDS011;3314;50.890;4.722;2023-08-08T00:17:09;8.7;;;1.7;;
6561;SDS011;3314;50.890;4.722;2023-08-08T00:19:09;7.0;;;1.4;;
6561;SDS011;3314;50.890;4.722;2023-08-08T00:21:08;10.5;;;1.4;;
6561;SDS011;3314;50.890;4.722;2023-08-08T00:23:08;8.6;;;1.7;;
6561;SDS011;3314;50.890;4.722;2023-08-08T00:25:08;12.2;;;1.8;;
6561;SDS011;3314;50.890;4.722;2023-08-08T00:27:07;8.0;;;1.4;;
6561;SDS011;3314;50.890;4.722;2023-08-08T00:29:07;7.9;;;1.4;;
6561;SDS011;3314;50.890;4.722;2023-08-08T00:31:06;7.2;;;1.3;;
6561;SDS011;3314;50.890;4.722;2023-08-08T00:33:06;10.0;;;1.5;;
6561;SDS011;3314;50.890;4.722;2023-08-08T00:35:06;8.4;;;1.4;;
6561;SDS011;3314;50.890;4.722;2023-08-08T00:37:05;10.2;;;1.7;;
6561;SDS011;3314;50.890;4.722;2023-08-08T00:39:05;9.2;;;2.1;;
6561;SDS011;3314;50.890;4.722;2023-08-08T00:41:05;7.0;;;1.5;;
6561;SDS011;3314;50.890;4.722;2023-08-08T00:43:04;10.4;;;1.7;;
6561;SDS011;3314;50.890;4.722;2023-08-08T00:45:04;9.0;;;2.1;;
6561;SDS011;3314;50.890;4.722;2023-08-08T00:47:04;10.4;;;1.5;;
6561;SDS011;3314;50.890;4.722;2023-08-08T00:49:04;11.8;;;1.6;;
6561;SDS011;3314;50.890;4.722;2023-08-08T00:51:03;8.0;;;1.6;;
6561;SDS011;3314;50.890;4.722;2023-08-08T00:53:03;7.4;;;1.5;;
6561;SDS011;3314;50.890;4.722;2023-08-08T00:55:04;9.6;;;1.7;;
6561;SDS011;3314;50.890;4.722;2023-08-08T00:57:04;9.6;;;2.0;;
6561;SDS011;3314;50.890;4.722;2023-08-08T00:59:04;8.0;;;1.8;;
6561;SDS011;3314;50.890;4.722;2023-08-08T01:01:04;7.2;;;1.3;;
6561;SDS011;3314;50.890;4.722;2023-08-08T01:03:04;8.7;;;1.6;;
6561;SDS011;3314;50.890;4.722;2023-08-08T01:05:04;9.9;;;1.5;;
6561;SDS011;3314;50.890;4.722;2023-08-08T01:07:06;8.0;;;1.5;;
6561;SDS011;3314;50.890;4.722;2023-08-08T01:08:57;8.2;;;1.5;;
6561;SDS011;3314;50.890;4.722;2023-08-08T01:10:57;8.0;;;1.6;;
6561;SDS011;3314;50.890;4.722;2023-08-08T01:12:59;9.4;;;1.6;;
6561;SDS011;3314;50.890;4.722;2023-08-08T01:14:59;7.9;;;1.4;;
6561;SDS011;3314;50.890;4.722;2023-08-08T01:17:00;17.6;;;2.3;;
6561;SDS011;3314;50.890;4.722;2023-08-08T01:19:00;10.4;;;1.5;;
6561;SDS011;3314;50.890;4.722;2023-08-08T01:20:59;6.6;;;1.6;;
6561;SDS011;3314;50.890;4.722;2023-08-08T01:23:03;9.0;;;1.5;;
6561;SDS011;3314;50.890;4.722;2023-08-08T01:24:54;10.7;;;2.0;;
6561;SDS011;3314;50.890;4.722;2023-08-08T01:26:55;9.1;;;1.3;;
6561;SDS011;3314;50.890;4.722;2023-08-08T01:28:55;9.5;;;1.8;;
6561;SDS011;3314;50.890;4.722;2023-08-08T01:30:54;8.3;;;1.9;;
6561;SDS011;3314;50.890;4.722;2023-08-08T01:32:54;7.6;;;1.6;;
6561;SDS011;3314;50.890;4.722;2023-08-08T01:34:54;12.2;;;1.9;;
6561;SDS011;3314;50.890;4.722;2023-08-08T01:36:54;9.3;;;1.9;;
6561;SDS011;3314;50.890;4.722;2023-08-08T01:38:55;8.5;;;1.8;;
6561;SDS011;3314;50.890;4.722;2023-08-08T01:40:58;11.4;;;1.8;;
6561;SDS011;3314;50.890;4.722;2023-08-08T01:42:59;14.4;;;1.9;;
6561;SDS011;3314;50.890;4.722;2023-08-08T01:44:58;8.9;;;1.8;;
6561;SDS011;3314;50.890;4.722;2023-08-08T01:46:58;7.9;;;2.3;;
6561;SDS011;3314;50.890;4.722;2023-08-08T01:48:58;9.3;;;1.5;;
6561;SDS011;3314;50.890;4.722;2023-08-08T01:50:57;9.2;;;1.6;;
6561;SDS011;3314;50.890;4.722;2023-08-08T01:52:57;10.0;;;2.1;;
6561;SDS011;3314;50.890;4.722;2023-08-08T01:54:56;11.7;;;1.8;;
6561;SDS011;3314;50.890;4.722;2023-08-08T01:56:56;11.7;;;2.2;;
6561;SDS011;3314;50.890;4.722;2023-08-08T01:58:56;9.0;;;1.6;;
6561;SDS011;3314;50.890;4.722;2023-08-08T02:00:56;8.1;;;1.7;;
6561;SDS011;3314;50.890;4.722;2023-08-08T02:02:56;9.6;;;1.9;;
6561;SDS011;3314;50.890;4.722;2023-08-08T02:04:55;11.3;;;1.8;;
6561;SDS011;3314;50.890;4.722;2023-08-08T02:06:55;12.0;;;1.9;;
6561;SDS011;3314;50.890;4.722;2023-08-08T02:08:55;9.2;;;1.8;;
6561;SDS011;3314;50.890;4.722;2023-08-08T02:10:54;10.2;;;1.7;;
6561;SDS011;3314;50.890;4.722;2023-08-08T02:12:54;8.5;;;2.0;;
6561;SDS011;3314;50.890;4.722;2023-08-08T02:14:54;11.5;;;2.5;;
6561;SDS011;3314;50.890;4.722;2023-08-08T02:16:53;11.7;;;2.5;;
6561;SDS011;3314;50.890;4.722;2023-08-08T02:18:53;14.3;;;1.8;;
6561;SDS011;3314;50.890;4.722;2023-08-08T02:20:52;13.2;;;2.2;;
6561;SDS011;3314;50.890;4.722;2023-08-08T02:22:52;9.6;;;2.2;;
6561;SDS011;3314;50.890;4.722;2023-08-08T02:24:51;11.2;;;2.2;;
6561;SDS011;3314;50.890;4.722;2023-08-08T02:26:51;12.1;;;2.0;;
6561;SDS011;3314;50.890;4.722;2023-08-08T02:28:51;9.1;;;2.1;;
6561;SDS011;3314;50.890;4.722;2023-08-08T02:30:50;11.1;;;2.0;;
6561;SDS011;3314;50.890;4.722;2023-08-08T02:32:50;13.1;;;1.9;;
6561;SDS011;3314;50.890;4.722;2023-08-08T02:34:50;9.4;;;1.9;;
6561;SDS011;3314;50.890;4.722;2023-08-08T02:36:49;12.9;;;1.9;;
6561;SDS011;3314;50.890;4.722;2023-08-08T02:38:50;31.0;;;2.2;;
6561;SDS011;3314;50.890;4.722;2023-08-08T02:40:49;11.8;;;2.1;;
6561;SDS011;3314;50.890;4.722;2023-08-08T02:42:49;9.4;;;1.5;;
6561;SDS011;3314;50.890;4.722;2023-08-08T02:44:49;10.8;;;2.4;;
6561;SDS011;3314;50.890;4.722;2023-08-08T02:46:48;8.7;;;1.5;;
6561;SDS011;3314;50.890;4.722;2023-08-08T02:48:48;11.5;;;2.2;;
6561;SDS011;3314;50.890;4.722;2023-08-08T02:50:47;10.1;;;2.1;;
6561;SDS011;3314;50.890;4.722;2023-08-08T02:52:47;11.8;;;1.7;;
6561;SDS011;3314;50.890;4.722;2023-08-08T02:54:47;13.4;;;2.1;;
6561;SDS011;3314;50.890;4.722;2023-08-08T02:56:46;9.4;;;1.6;;
6561;SDS011;3314;50.890;4.722;2023-08-08T02:58:46;12.3;;;2.1;;
6561;SDS011;3314;50.890;4.722;2023-08-08T03:00:49;14.5;;;2.9;;
6561;SDS011;3314;50.890;4.722;2023-08-08T03:02:48;11.4;;;1.9;;
6561;SDS011;3314;50.890;4.722;2023-08-08T03:04:48;13.6;;;2.1;;
6561;SDS011;3314;50.890;4.722;2023-08-08T03:06:48;14.4;;;1.9;;
6561;SDS011;3314;50.890;4.722;2023-08-08T03:08:47;12.5;;;2.1;;
6561;SDS011;3314;50.890;4.722;2023-08-08T03:10:47;14.3;;;1.8;;
6561;SDS011;3314;50.890;4.722;2023-08-08T03:12:47;12.3;;;2.6;;
6561;SDS011;3314;50.890;4.722;2023-08-08T03:14:46;8.4;;;1.8;;
6561;SDS011;3314;50.890;4.722;2023-08-08T03:16:46;14.9;;;2.3;;
6561;SDS011;3314;50.890;4.722;2023-08-08T03:18:46;12.7;;;2.3;;
6561;SDS011;3314;50.890;4.722;2023-08-08T03:20:45;9.7;;;1.8;;
6561;SDS011;3314;50.890;4.722;2023-08-08T03:22:45;10.3;;;2.2;;
6561;SDS011;3314;50.890;4.722;2023-08-08T03:24:45;11.8;;;2.0;;
6561;SDS011;3314;50.890;4.722;2023-08-08T03:26:44;9.6;;;1.9;;
6561;SDS011;3314;50.890;4.722;2023-08-08T03:28:44;10.8;;;2.6;;
6561;SDS011;3314;50.890;4.722;2023-08-08T03:30:44;10.7;;;2.0;;
6561;SDS011;3314;50.890;4.722;2023-08-08T03:32:43;12.5;;;1.9;;
6561;SDS011;3314;50.890;4.722;2023-08-08T03:34:43;10.1;;;2.1;;
6561;SDS011;3314;50.890;4.722;2023-08-08T03:36:42;12.3;;;2.4;;
6561;SDS011;3314;50.890;4.722;2023-08-08T03:38:44;10.9;;;2.8;;
6561;SDS011;3314;50.890;4.722;2023-08-08T03:40:44;10.7;;;1.8;;
6561;SDS011;3314;50.890;4.722;2023-08-08T03:42:44;12.3;;;2.3;;
6561;SDS011;3314;50.890;4.722;2023-08-08T03:44:45;16.8;;;2.2;;
6561;SDS011;3314;50.890;4.722;2023-08-08T03:46:45;7.8;;;2.2;;
6561;SDS011;3314;50.890;4.722;2023-08-08T03:48:44;10.9;;;1.7;;
6561;SDS011;3314;50.890;4.722;2023-08-08T03:50:44;9.5;;;2.7;;
6561;SDS011;3314;50.890;4.722;2023-08-08T03:52:43;9.0;;;1.9;;
6561;SDS011;3314;50.890;4.722;2023-08-08T03:54:43;9.8;;;2.7;;
6561;SDS011;3314;50.890;4.722;2023-08-08T03:56:43;8.7;;;1.8;;
6561;SDS011;3314;50.890;4.722;2023-08-08T03:58:42;13.4;;;3.0;;
6561;SDS011;3314;50.890;4.722;2023-08-08T04:00:46;13.1;;;2.3;;
6561;SDS011;3314;50.890;4.722;2023-08-08T04:02:34;11.9;;;2.9;;
6561;SDS011;3314;50.890;4.722;2023-08-08T04:04:33;8.1;;;2.2;;
6561;SDS011;3314;50.890;4.722;2023-08-08T04:06:33;14.9;;;3.2;;
6561;SDS011;3314;50.890;4.722;2023-08-08T04:08:33;11.9;;;2.7;;
6561;SDS011;3314;50.890;4.722;2023-08-08T04:10:32;12.2;;;2.3;;
6561;SDS011;3314;50.890;4.722;2023-08-08T04:12:33;15.4;;;2.6;;
6561;SDS011;3314;50.890;4.722;2023-08-08T04:14:32;11.4;;;2.6;;
6561;SDS011;3314;50.890;4.722;2023-08-08T04:16:32;12.6;;;3.0;;
6561;SDS011;3314;50.890;4.722;2023-08-08T04:18:32;10.1;;;2.6;;
6561;SDS011;3314;50.890;4.722;2023-08-08T04:20:31;12.1;;;2.8;;
6561;SDS011;3314;50.890;4.722;2023-08-08T04:22:31;10.4;;;2.5;;
6561;SDS011;3314;50.890;4.722;2023-08-08T04:24:31;10.2;;;2.6;;
6561;SDS011;3314;50.890;4.722;2023-08-08T04:26:30;13.0;;;3.0;;
6561;SDS011;3314;50.890;4.722;2023-08-08T04:28:30;15.1;;;3.0;;
6561;SDS011;3314;50.890;4.722;2023-08-08T04:30:29;16.6;;;3.1;;
6561;SDS011;3314;50.890;4.722;2023-08-08T04:32:29;15.7;;;3.3;;
6561;SDS011;3314;50.890;4.722;2023-08-08T04:34:29;15.7;;;2.7;;
6561;SDS011;3314;50.890;4.722;2023-08-08T04:36:29;12.7;;;2.9;;
6561;SDS011;3314;50.890;4.722;2023-08-08T04:38:29;14.4;;;2.6;;
6561;SDS011;3314;50.890;4.722;2023-08-08T04:40:28;12.1;;;2.9;;
6561;SDS011;3314;50.890;4.722;2023-08-08T04:42:28;11.5;;;3.0;;
6561;SDS011;3314;50.890;4.722;2023-08-08T04:44:28;10.6;;;2.7;;
6561;SDS011;3314;50.890;4.722;2023-08-08T04:46:27;11.8;;;2.7;;
6561;SDS011;3314;50.890;4.722;2023-08-08T04:48:27;12.6;;;2.8;;
6561;SDS011;3314;50.890;4.722;2023-08-08T04:50:27;13.4;;;3.2;;
6561;SDS011;3314;50.890;4.722;2023-08-08T04:52:26;13.4;;;2.8;;
6561;SDS011;3314;50.890;4.722;2023-08-08T04:54:26;12.6;;;2.6;;
6561;SDS011;3314;50.890;4.722;2023-08-08T04:56:26;15.0;;;3.2;;
6561;SDS011;3314;50.890;4.722;2023-08-08T04:58:26;13.4;;;2.8;;
6561;SDS011;3314;50.890;4.722;2023-08-08T05:00:30;15.4;;;2.5;;
6561;SDS011;3314;50.890;4.722;2023-08-08T05:02:30;15.5;;;3.0;;
6561;SDS011;3314;50.890;4.722;2023-08-08T05:04:30;10.6;;;2.3;;
6561;SDS011;3314;50.890;4.722;2023-08-08T05:06:30;9.3;;;2.7;;
6561;SDS011;3314;50.890;4.722;2023-08-08T05:08:29;15.0;;;2.7;;
6561;SDS011;3314;50.890;4.722;2023-08-08T05:10:30;19.3;;;3.3;;
6561;SDS011;3314;50.890;4.722;2023-08-08T05:12:29;16.0;;;3.4;;
6561;SDS011;3314;50.890;4.722;2023-08-08T05:14:29;9.0;;;2.6;;
6561;SDS011;3314;50.890;4.722;2023-08-08T05:16:29;12.2;;;2.3;;
6561;SDS011;3314;50.890;4.722;2023-08-08T05:18:28;12.1;;;2.4;;
6561;SDS011;3314;50.890;4.722;2023-08-08T05:20:28;13.1;;;2.9;;
6561;SDS011;3314;50.890;4.722;2023-08-08T05:22:28;16.7;;;3.0;;
6561;SDS011;3314;50.890;4.722;2023-08-08T05:24:27;15.5;;;3.0;;
6561;SDS011;3314;50.890;4.722;2023-08-08T05:26:27;12.9;;;2.1;;
6561;SDS011;3314;50.890;4.722;2023-08-08T05:28:26;18.4;;;3.2;;
6561;SDS011;3314;50.890;4.722;2023-08-08T05:30:26;14.6;;;2.6;;
6561;SDS011;3314;50.890;4.722;2023-08-08T05:32:26;20.1;;;3.2;;
6561;SDS011;3314;50.890;4.722;2023-08-08T05:34:25;13.0;;;2.2;;
6561;SDS011;3314;50.890;4.722;2023-08-08T05:36:25;12.9;;;2.5;;
6561;SDS011;3314;50.890;4.722;2023-08-08T05:38:24;9.4;;;2.0;;
6561;SDS011;3314;50.890;4.722;2023-08-08T05:40:24;10.5;;;2.9;;
6561;SDS011;3314;50.890;4.722;2023-08-08T05:42:24;14.6;;;2.3;;
6561;SDS011;3314;50.890;4.722;2023-08-08T05:44:24;10.8;;;2.6;;
6561;SDS011;3314;50.890;4.722;2023-08-08T05:46:23;10.6;;;2.1;;
6561;SDS011;3314;50.890;4.722;2023-08-08T05:48:23;11.0;;;2.4;;
6561;SDS011;3314;50.890;4.722;2023-08-08T05:50:22;13.1;;;2.2;;
6561;SDS011;3314;50.890;4.722;2023-08-08T05:52:23;8.1;;;2.2;;
6561;SDS011;3314;50.890;4.722;2023-08-08T05:54:22;10.7;;;3.2;;
6561;SDS011;3314;50.890;4.722;2023-08-08T05:56:22;14.1;;;2.9;;
6561;SDS011;3314;50.890;4.722;2023-08-08T05:58:22;13.5;;;2.4;;
6561;SDS011;3314;50.890;4.722;2023-08-08T06:00:27;10.4;;;2.6;;
6561;SDS011;3314;50.890;4.722;2023-08-08T06:02:26;13.0;;;2.2;;
6561;SDS011;3314;50.890;4.722;2023-08-08T06:04:26;11.6;;;2.5;;
6561;SDS011;3314;50.890;4.722;2023-08-08T06:06:26;11.6;;;2.6;;
6561;SDS011;3314;50.890;4.722;2023-08-08T06:08:25;9.8;;;2.5;;
6561;SDS011;3314;50.890;4.722;2023-08-08T06:10:25;10.1;;;2.5;;
6561;SDS011;3314;50.890;4.722;2023-08-08T06:12:25;14.4;;;3.0;;
6561;SDS011;3314;50.890;4.722;2023-08-08T06:14:25;25.4;;;3.3;;
6561;SDS011;3314;50.890;4.722;2023-08-08T06:16:25;9.1;;;2.4;;
6561;SDS011;3314;50.890;4.722;2023-08-08T06:18:24;11.0;;;2.6;;
6561;SDS011;3314;50.890;4.722;2023-08-08T06:20:24;13.4;;;2.8;;
6561;SDS011;3314;50.890;4.722;2023-08-08T06:22:24;11.1;;;2.7;;
6561;SDS011;3314;50.890;4.722;2023-08-08T06:24:23;8.9;;;2.2;;
6561;SDS011;3314;50.890;4.722;2023-08-08T06:26:23;11.3;;;2.4;;
6561;SDS011;3314;50.890;4.722;2023-08-08T06:28:22;13.9;;;2.6;;
6561;SDS011;3314;50.890;4.722;2023-08-08T06:30:22;16.7;;;2.9;;
6561;SDS011;3314;50.890;4.722;2023-08-08T06:32:22;10.6;;;3.1;;
6561;SDS011;3314;50.890;4.722;2023-08-08T06:34:22;8.5;;;2.0;;
6561;SDS011;3314;50.890;4.722;2023-08-08T06:36:21;10.5;;;2.4;;
6561;SDS011;3314;50.890;4.722;2023-08-08T06:38:21;11.0;;;2.4;;
6561;SDS011;3314;50.890;4.722;2023-08-08T06:40:21;11.2;;;2.2;;
6561;SDS011;3314;50.890;4.722;2023-08-08T06:42:21;11.7;;;2.8;;
6561;SDS011;3314;50.890;4.722;2023-08-08T06:44:20;14.7;;;3.0;;
6561;SDS011;3314;50.890;4.722;2023-08-08T06:46:20;10.9;;;1.8;;
6561;SDS011;3314;50.890;4.722;2023-08-08T06:48:20;12.6;;;2.7;;
6561;SDS011;3314;50.890;4.722;2023-08-08T06:50:20;12.9;;;2.4;;
6561;SDS011;3314;50.890;4.722;2023-08-08T06:52:20;9.9;;;2.4;;
6561;SDS011;3314;50.890;4.722;2023-08-08T06:54:20;12.0;;;2.5;;
6561;SDS011;3314;50.890;4.722;2023-08-08T06:56:20;11.4;;;2.4;;
6561;SDS011;3314;50.890;4.722;2023-08-08T06:58:19;14.0;;;2.6;;
6561;SDS011;3314;50.890;4.722;2023-08-08T07:00:23;15.6;;;3.2;;
6561;SDS011;3314;50.890;4.722;2023-08-08T07:02:11;13.7;;;2.5;;
6561;SDS011;3314;50.890;4.722;2023-08-08T07:04:11;8.3;;;1.6;;
6561;SDS011;3314;50.890;4.722;2023-08-08T07:06:11;10.3;;;1.7;;
6561;SDS011;3314;50.890;4.722;2023-08-08T07:08:10;17.2;;;2.5;;
6561;SDS011;3314;50.890;4.722;2023-08-08T07:10:12;11.9;;;2.1;;
6561;SDS011;3314;50.890;4.722;2023-08-08T07:12:11;9.6;;;2.3;;
6561;SDS011;3314;50.890;4.722;2023-08-08T07:14:11;12.7;;;2.5;;
6561;SDS011;3314;50.890;4.722;2023-08-08T07:16:10;9.6;;;1.7;;
6561;SDS011;3314;50.890;4.722;2023-08-08T07:18:10;11.4;;;2.0;;
6561;SDS011;3314;50.890;4.722;2023-08-08T07:20:14;9.4;;;2.1;;
6561;SDS011;3314;50.890;4.722;2023-08-08T07:22:13;13.8;;;2.0;;
6561;SDS011;3314;50.890;4.722;2023-08-08T07:24:13;10.3;;;1.8;;
6561;SDS011;3314;50.890;4.722;2023-08-08T07:26:12;11.6;;;2.2;;
6561;SDS011;3314;50.890;4.722;2023-08-08T07:28:15;10.3;;;2.0;;
6561;SDS011;3314;50.890;4.722;2023-08-08T07:30:15;13.1;;;2.4;;
6561;SDS011;3314;50.890;4.722;2023-08-08T07:32:14;9.0;;;1.7;;
6561;SDS011;3314;50.890;4.722;2023-08-08T07:34:14;10.9;;;2.0;;
6561;SDS011;3314;50.890;4.722;2023-08-08T07:36:14;10.9;;;2.0;;
6561;SDS011;3314;50.890;4.722;2023-08-08T07:38:13;11.4;;;1.9;;
6561;SDS011;3314;50.890;4.722;2023-08-08T07:40:14;10.5;;;2.3;;
6561;SDS011;3314;50.890;4.722;2023-08-08T07:42:13;13.3;;;2.6;;
6561;SDS011;3314;50.890;4.722;2023-08-08T07:44:13;12.0;;;1.7;;
6561;SDS011;3314;50.890;4.722;2023-08-08T07:46:13;10.3;;;2.0;;
6561;SDS011;3314;50.890;4.722;2023-08-08T07:48:15;11.6;;;2.1;;
6561;SDS011;3314;50.890;4.722;2023-08-08T07:50:15;9.6;;;2.0;;
6561;SDS011;3314;50.890;4.722;2023-08-08T07:52:14;10.7;;;2.1;;
6561;SDS011;3314;50.890;4.722;2023-08-08T07:54:14;10.7;;;3.2;;
6561;SDS011;3314;50.890;4.722;2023-08-08T07:56:13;12.8;;;2.3;;
6561;SDS011;3314;50.890;4.722;2023-08-08T07:58:13;9.7;;;1.9;;
6561;SDS011;3314;50.890;4.722;2023-08-08T08:00:19;13.3;;;2.3;;
6561;SDS011;3314;50.890;4.722;2023-08-08T08:02:08;11.7;;;2.2;;
6561;SDS011;3314;50.890;4.722;2023-08-08T08:04:07;12.3;;;2.3;;
6561;SDS011;3314;50.890;4.722;2023-08-08T08:06:07;9.8;;;1.9;;
6561;SDS011;3314;50.890;4.722;2023-08-08T08:08:07;12.8;;;2.2;;
6561;SDS011;3314;50.890;4.722;2023-08-08T08:10:07;9.1;;;2.2;;
6561;SDS011;3314;50.890;4.722;2023-08-08T08:12:08;9.9;;;2.3;;
6561;SDS011;3314;50.890;4.722;2023-08-08T08:14:07;8.8;;;2.3;;
6561;SDS011;3314;50.890;4.722;2023-08-08T08:16:07;11.1;;;2.7;;
6561;SDS011;3314;50.890;4.722;2023-08-08T08:18:07;9.2;;;2.6;;
6561;SDS011;3314;50.890;4.722;2023-08-08T08:20:11;16.8;;;3.5;;
6561;SDS011;3314;50.890;4.722;2023-08-08T08:22:10;13.8;;;3.2;;
6561;SDS011;3314;50.890;4.722;2023-08-08T08:24:10;14.6;;;2.4;;
6561;SDS011;3314;50.890;4.722;2023-08-08T08:26:10;11.7;;;2.7;;
6561;SDS011;3314;50.890;4.722;2023-08-08T08:28:10;12.4;;;3.6;;
6561;SDS011;3314;50.890;4.722;2023-08-08T08:30:10;10.8;;;2.6;;
6561;SDS011;3314;50.890;4.722;2023-08-08T08:32:10;11.8;;;3.0;;
6561;SDS011;3314;50.890;4.722;2023-08-08T08:34:10;13.0;;;2.8;;
6561;SDS011;3314;50.890;4.722;2023-08-08T08:36:10;14.9;;;3.2;;
6561;SDS011;3314;50.890;4.722;2023-08-08T08:38:10;12.7;;;2.9;;
6561;SDS011;3314;50.890;4.722;2023-08-08T08:40:09;9.6;;;2.5;;
6561;SDS011;3314;50.890;4.722;2023-08-08T08:42:09;12.2;;;2.4;;
6561;SDS011;3314;50.890;4.722;2023-08-08T08:44:00;9.2;;;2.5;;
6561;SDS011;3314;50.890;4.722;2023-08-08T08:46:00;15.8;;;2.8;;
6561;SDS011;3314;50.890;4.722;2023-08-08T08:47:59;10.0;;;2.4;;
6561;SDS011;3314;50.890;4.722;2023-08-08T08:50:01;9.9;;;2.5;;
6561;SDS011;3314;50.890;4.722;2023-08-08T08:52:01;10.1;;;2.1;;
6561;SDS011;3314;50.890;4.722;2023-08-08T08:54:01;11.4;;;3.0;;
6561;SDS011;3314;50.890;4.722;2023-08-08T08:56:01;14.2;;;2.7;;
6561;SDS011;3314;50.890;4.722;2023-08-08T08:58:01;13.1;;;2.7;;
6561;SDS011;3314;50.890;4.722;2023-08-08T09:00:00;11.5;;;2.2;;
6561;SDS011;3314;50.890;4.722;2023-08-08T09:02:01;13.2;;;2.7;;
6561;SDS011;3314;50.890;4.722;2023-08-08T09:04:01;13.9;;;2.4;;
6561;SDS011;3314;50.890;4.722;2023-08-08T09:06:01;10.8;;;2.2;;
6561;SDS011;3314;50.890;4.722;2023-08-08T09:08:01;15.8;;;2.6;;
6561;SDS011;3314;50.890;4.722;2023-08-08T09:10:01;11.8;;;2.2;;
6561;SDS011;3314;50.890;4.722;2023-08-08T09:12:01;11.1;;;2.2;;
6561;SDS011;3314;50.890;4.722;2023-08-08T09:14:00;12.6;;;3.0;;
6561;SDS011;3314;50.890;4.722;2023-08-08T09:16:00;13.2;;;1.9;;
6561;SDS011;3314;50.890;4.722;2023-08-08T09:18:00;11.7;;;2.5;;
6561;SDS011;3314;50.890;4.722;2023-08-08T09:19:59;17.3;;;2.8;;
6561;SDS011;3314;50.890;4.722;2023-08-08T09:21:59;9.8;;;2.3;;
6561;SDS011;3314;50.890;4.722;2023-08-08T09:23:59;11.7;;;3.2;;
6561;SDS011;3314;50.890;4.722;2023-08-08T09:25:59;8.9;;;1.8;;
6561;SDS011;3314;50.890;4.722;2023-08-08T09:27:59;11.3;;;2.6;;
6561;SDS011;3314;50.890;4.722;2023-08-08T09:29:58;9.6;;;2.1;;
6561;SDS011;3314;50.890;4.722;2023-08-08T09:31:58;11.2;;;1.9;;
6561;SDS011;3314;50.890;4.722;2023-08-08T09:33:58;8.9;;;2.0;;
6561;SDS011;3314;50.890;4.722;2023-08-08T09:35:58;14.3;;;3.0;;
6561;SDS011;3314;50.890;4.722;2023-08-08T09:37:58;14.3;;;2.0;;
6561;SDS011;3314;50.890;4.722;2023-08-08T09:39:57;13.6;;;2.2;;
6561;SDS011;3314;50.890;4.722;2023-08-08T09:41:57;11.0;;;2.0;;
6561;SDS011;3314;50.890;4.722;2023-08-08T09:43:58;10.3;;;1.9;;
6561;SDS011;3314;50.890;4.722;2023-08-08T09:45:58;9.5;;;1.9;;
6561;SDS011;3314;50.890;4.722;2023-08-08T09:47:58;11.9;;;2.1;;
6561;SDS011;3314;50.890;4.722;2023-08-08T09:49:59;13.7;;;2.3;;
6561;SDS011;3314;50.890;4.722;2023-08-08T09:51:59;11.4;;;2.6;;
6561;SDS011;3314;50.890;4.722;2023-08-08T09:53:59;11.4;;;2.1;;
6561;SDS011;3314;50.890;4.722;2023-08-08T09:55:58;16.8;;;2.3;;
6561;SDS011;3314;50.890;4.722;2023-08-08T09:57:59;8.4;;;1.6;;
6561;SDS011;3314;50.890;4.722;2023-08-08T09:59:59;12.7;;;2.2;;
6561;SDS011;3314;50.890;4.722;2023-08-08T10:02:00;8.0;;;1.8;;
6561;SDS011;3314;50.890;4.722;2023-08-08T10:03:59;8.9;;;1.7;;
6561;SDS011;3314;50.890;4.722;2023-08-08T10:06:01;16.0;;;1.9;;
6561;SDS011;3314;50.890;4.722;2023-08-08T10:08:00;12.7;;;2.3;;
6561;SDS011;3314;50.890;4.722;2023-08-08T10:10:00;9.2;;;2.0;;
6561;SDS011;3314;50.890;4.722;2023-08-08T10:12:00;11.2;;;2.4;;
6561;SDS011;3314;50.890;4.722;2023-08-08T10:14:01;11.2;;;1.9;;
6561;SDS011;3314;50.890;4.722;2023-08-08T10:15:50;10.2;;;1.7;;
6561;SDS011;3314;50.890;4.722;2023-08-08T10:17:52;9.1;;;1.6;;
6561;SDS011;3314;50.890;4.722;2023-08-08T10:19:53;9.3;;;2.1;;
6561;SDS011;3314;50.890;4.722;2023-08-08T10:21:56;7.8;;;1.4;;
6561;SDS011;3314;50.890;4.722;2023-08-08T10:24:03;12.5;;;1.9;;
6561;SDS011;3314;50.890;4.722;2023-08-08T10:25:51;9.6;;;1.9;;
6561;SDS011;3314;50.890;4.722;2023-08-08T10:28:01;13.5;;;1.8;;
6561;SDS011;3314;50.890;4.722;2023-08-08T10:29:49;9.7;;;1.8;;
6561;SDS011;3314;50.890;4.722;2023-08-08T10:31:51;11.2;;;1.7;;
6561;SDS011;3314;50.890;4.722;2023-08-08T10:34:00;8.7;;;1.8;;
6561;SDS011;3314;50.890;4.722;2023-08-08T10:36:04;8.3;;;1.5;;
6561;SDS011;3314;50.890;4.722;2023-08-08T10:37:52;11.2;;;1.8;;
6561;SDS011;3314;50.890;4.722;2023-08-08T10:39:53;8.9;;;1.6;;
6561;SDS011;3314;50.890;4.722;2023-08-08T10:41:53;9.3;;;1.3;;
6561;SDS011;3314;50.890;4.722;2023-08-08T10:43:53;9.1;;;1.5;;
6561;SDS011;3314;50.890;4.722;2023-08-08T10:45:53;8.9;;;1.9;;
6561;SDS011;3314;50.890;4.722;2023-08-08T10:47:55;9.9;;;1.6;;
6561;SDS011;3314;50.890;4.722;2023-08-08T10:49:57;10.2;;;1.7;;
6561;SDS011;3314;50.890;4.722;2023-08-08T10:52:01;14.1;;;1.9;;
6561;SDS011;3314;50.890;4.722;2023-08-08T10:53:51;9.0;;;1.7;;
6561;SDS011;3314;50.890;4.722;2023-08-08T10:55:56;10.7;;;1.4;;
6561;SDS011;3314;50.890;4.722;2023-08-08T10:57:57;11.0;;;2.3;;
6561;SDS011;3314;50.890;4.722;2023-08-08T10:59:46;9.4;;;1.5;;
6561;SDS011;3314;50.890;4.722;2023-08-08T11:01:46;10.5;;;1.6;;
6561;SDS011;3314;50.890;4.722;2023-08-08T11:03:48;10.1;;;1.8;;
6561;SDS011;3314;50.890;4.722;2023-08-08T11:05:49;11.5;;;1.5;;
6561;SDS011;3314;50.890;4.722;2023-08-08T11:07:49;9.2;;;1.6;;
6561;SDS011;3314;50.890;4.722;2023-08-08T11:09:49;8.1;;;1.9;;
6561;SDS011;3314;50.890;4.722;2023-08-08T11:11:49;7.9;;;1.7;;
6561;SDS011;3314;50.890;4.722;2023-08-08T11:13:51;8.1;;;1.5;;
6561;SDS011;3314;50.890;4.722;2023-08-08T11:15:51;6.9;;;1.3;;
6561;SDS011;3314;50.890;4.722;2023-08-08T11:17:53;7.4;;;1.4;;
6561;SDS011;3314;50.890;4.722;2023-08-08T11:19:53;8.0;;;1.5;;
6561;SDS011;3314;50.890;4.722;2023-08-08T11:21:52;8.8;;;1.7;;
6561;SDS011;3314;50.890;4.722;2023-08-08T11:23:52;8.7;;;1.6;;
6561;SDS011;3314;50.890;4.722;2023-08-08T11:25:52;7.4;;;1.5;;
6561;SDS011;3314;50.890;4.722;2023-08-08T11:27:52;9.4;;;1.5;;
6561;SDS011;3314;50.890;4.722;2023-08-08T11:29:52;9.6;;;1.7;;
6561;SDS011;3314;50.890;4.722;2023-08-08T11:31:51;7.5;;;1.3;;
6561;SDS011;3314;50.890;4.722;2023-08-08T11:33:52;9.0;;;1.9;;
6561;SDS011;3314;50.890;4.722;2023-08-08T11:35:52;8.0;;;1.2;;
6561;SDS011;3314;50.890;4.722;2023-08-08T11:37:52;10.0;;;2.3;;
6561;SDS011;3314;50.890;4.722;2023-08-08T11:39:51;7.3;;;1.2;;
6561;SDS011;3314;50.890;4.722;2023-08-08T11:41:51;7.8;;;1.3;;
6561;SDS011;3314;50.890;4.722;2023-08-08T11:43:51;8.7;;;1.6;;
6561;SDS011;3314;50.890;4.722;2023-08-08T11:45:52;7.1;;;1.3;;
6561;SDS011;3314;50.890;4.722;2023-08-08T11:47:42;10.1;;;1.6;;
6561;SDS011;3314;50.890;4.722;2023-08-08T11:49:41;11.2;;;1.4;;
6561;SDS011;3314;50.890;4.722;2023-08-08T11:51:42;6.4;;;1.3;;
6561;SDS011;3314;50.890;4.722;2023-08-08T11:53:48;6.4;;;1.0;;
6561;SDS011;3314;50.890;4.722;2023-08-08T11:55:47;8.9;;;2.0;;
6561;SDS011;3314;50.890;4.722;2023-08-08T11:57:47;6.9;;;1.3;;
6561;SDS011;3314;50.890;4.722;2023-08-08T11:59:48;6.8;;;1.3;;
6561;SDS011;3314;50.890;4.722;2023-08-08T12:01:48;9.0;;;1.1;;
6561;SDS011;3314;50.890;4.722;2023-08-08T12:03:48;8.5;;;1.2;;
6561;SDS011;3314;50.890;4.722;2023-08-08T12:05:48;6.2;;;0.9;;
6561;SDS011;3314;50.890;4.722;2023-08-08T12:07:48;10.2;;;1.2;;
6561;SDS011;3314;50.890;4.722;2023-08-08T12:09:47;8.0;;;1.2;;
6561;SDS011;3314;50.890;4.722;2023-08-08T12:11:47;8.3;;;1.3;;
6561;SDS011;3314;50.890;4.722;2023-08-08T12:13:47;9.4;;;1.2;;
6561;SDS011;3314;50.890;4.722;2023-08-08T12:15:46;9.6;;;1.5;;
6561;SDS011;3314;50.890;4.722;2023-08-08T12:17:46;8.0;;;1.4;;
6561;SDS011;3314;50.890;4.722;2023-08-08T12:19:46;8.3;;;1.3;;
6561;SDS011;3314;50.890;4.722;2023-08-08T12:21:45;9.1;;;1.5;;
6561;SDS011;3314;50.890;4.722;2023-08-08T12:23:45;11.0;;;2.0;;
6561;SDS011;3314;50.890;4.722;2023-08-08T12:25:44;15.3;;;1.5;;
6561;SDS011;3314;50.890;4.722;2023-08-08T12:27:45;8.0;;;1.7;;
6561;SDS011;3314;50.890;4.722;2023-08-08T12:29:45;8.1;;;0.8;;
6561;SDS011;3314;50.890;4.722;2023-08-08T12:31:45;7.8;;;1.1;;
6561;SDS011;3314;50.890;4.722;2023-08-08T12:33:46;10.0;;;1.5;;
6561;SDS011;3314;50.890;4.722;2023-08-08T12:35:46;7.5;;;1.5;;
6561;SDS011;3314;50.890;4.722;2023-08-08T12:37:46;8.6;;;1.3;;
6561;SDS011;3314;50.890;4.722;2023-08-08T12:39:45;8.0;;;1.5;;